Blackfalds, Canada
Current Conditions -  °F | °C
As of 3:00 AM on Friday 31 Oct 2014 (Local Time) from CYQF Reporting Station
Overcast Overcast  
Wind Chill: 30°   Ceiling: 15000
Heat Index: 39°   Visibility: 15mi
Dew Point: 34°   Wind: 16mph
Humidity: 81%   Direction: 170°S
Pressure: 29.71"   Gusts: NA
Location:  52.38°N, 113.8°W
Report Text: CYQF 310900Z 17014KT 15SM OVC150 04/01 A2971 RMK AC8 SLP095
Loading
Personal Weather Stations






























Interactive Weather Map
Tropical Storm Tracking
New forecast layout! Learn more

10-Day Weather Forecast

Advertisements
Track Severe Weather on mobile